createdAt,value
2023-01-20T02:01:01.667Z,9.03
2023-01-20T02:02:01.766Z,10.23
2023-01-20T02:03:02.303Z,8.30
2023-01-20T02:04:04.673Z,9.67
2023-01-20T02:05:01.656Z,11.07
2023-01-20T02:06:02.978Z,9.40
2023-01-20T02:07:04.606Z,9.80
2023-01-20T02:08:03.088Z,8.87
2023-01-20T02:09:02.965Z,10.03
2023-01-20T02:10:01.252Z,7.47
2023-01-20T02:11:01.073Z,9.00
2023-01-20T02:12:05.619Z,9.70
2023-01-20T02:13:02.379Z,9.67
2023-01-20T02:14:01.660Z,10.63
2023-01-20T02:15:03.540Z,10.17
2023-01-20T02:16:13.064Z,10.37
2023-01-20T02:17:10.497Z,10.13
2023-01-20T02:18:16.136Z,9.57
2023-01-20T02:19:20.419Z,11.00
2023-01-20T02:20:17.091Z,10.97
2023-01-20T02:21:20.458Z,9.00
2023-01-20T02:22:13.480Z,10.73
2023-01-20T02:23:09.712Z,9.60
2023-01-20T02:24:20.460Z,9.97
2023-01-20T02:25:20.471Z,10.30
2023-01-20T02:26:20.472Z,10.30
2023-01-20T02:27:08.933Z,8.77
2023-01-20T02:28:20.799Z,9.90
2023-01-20T02:29:20.469Z,9.23
2023-01-20T02:30:20.477Z,10.30
2023-01-20T02:31:20.522Z,8.53
2023-01-20T02:32:14.020Z,10.80
2023-01-20T02:33:07.892Z,9.30
2023-01-20T02:34:07.657Z,8.27
2023-01-20T02:35:09.819Z,8.53
2023-01-20T02:36:06.307Z,9.67
2023-01-20T02:37:10.365Z,9.00
2023-01-20T02:38:13.589Z,9.53
2023-01-20T02:39:06.635Z,8.87
2023-01-20T02:40:15.411Z,9.00
2023-01-20T02:41:09.798Z,9.63
2023-01-20T02:42:08.770Z,8.80
2023-01-20T02:43:09.881Z,7.93
2023-01-20T02:44:12.497Z,9.40
2023-01-20T02:45:08.261Z,9.00
2023-01-20T02:46:07.922Z,8.57
2023-01-20T02:47:07.008Z,8.73
2023-01-20T02:48:06.497Z,6.37
2023-01-20T02:49:11.052Z,7.93
2023-01-20T02:50:09.615Z,6.90
2023-01-20T02:51:05.967Z,7.37
2023-01-20T02:52:08.357Z,9.73
2023-01-20T02:53:03.525Z,8.93
2023-01-20T02:54:05.207Z,7.33
2023-01-20T02:55:05.775Z,6.90
2023-01-20T02:56:01.722Z,7.00
2023-01-20T02:57:05.443Z,8.07
2023-01-20T02:58:06.777Z,7.30
2023-01-20T02:59:06.622Z,7.97
2023-01-20T03:00:07.631Z,7.93
2023-01-20T03:01:09.097Z,7.33
2023-01-20T03:02:05.865Z,6.07
2023-01-20T03:03:04.914Z,7.60
2023-01-20T03:04:04.329Z,7.87
2023-01-20T03:05:06.734Z,6.63
2023-01-20T03:06:05.662Z,5.77
2023-01-20T03:07:04.291Z,7.10
2023-01-20T03:08:06.142Z,6.40
2023-01-20T03:09:06.297Z,6.87
2023-01-20T03:10:06.897Z,5.57
2023-01-20T03:11:05.271Z,5.97
2023-01-20T03:12:08.632Z,6.03
2023-01-20T03:13:07.857Z,6.67
2023-01-20T03:14:05.328Z,5.83
2023-01-20T03:15:02.227Z,5.80
2023-01-20T03:16:04.356Z,6.07
2023-01-20T03:17:02.339Z,6.07
2023-01-20T03:18:01.550Z,6.67
2023-01-20T03:19:02.095Z,5.00
2023-01-20T03:20:01.751Z,5.67
2023-01-20T03:21:03.927Z,4.67
2023-01-20T03:22:01.924Z,5.40
2023-01-20T03:23:01.138Z,4.17
2023-01-20T03:24:03.781Z,6.07
2023-01-20T03:25:02.605Z,6.80
2023-01-20T03:26:07.599Z,4.83
2023-01-20T03:27:01.190Z,5.77
2023-01-20T03:28:01.123Z,4.73
2023-01-20T03:29:06.145Z,4.60
2023-01-20T03:30:01.552Z,5.43
2023-01-20T03:31:10.230Z,4.60
2023-01-20T03:32:05.365Z,4.53
2023-01-20T03:33:01.957Z,3.70
2023-01-20T03:34:05.737Z,5.00
2023-01-20T03:35:01.540Z,4.83
2023-01-20T03:36:01.901Z,3.90
2023-01-20T03:37:02.946Z,4.00
2023-01-20T03:38:01.499Z,3.60
2023-01-20T03:39:01.627Z,4.57
2023-01-20T03:40:01.571Z,4.57
2023-01-20T03:41:08.024Z,4.67
2023-01-20T03:42:06.912Z,4.27
2023-01-20T03:43:11.062Z,4.77
2023-01-20T03:44:09.449Z,4.63
2023-01-20T03:45:09.870Z,4.07
2023-01-20T03:46:06.496Z,3.87
2023-01-20T03:47:10.937Z,3.73
2023-01-20T03:48:07.987Z,3.70
2023-01-20T03:49:12.867Z,2.93
2023-01-20T03:50:08.239Z,4.00
2023-01-20T03:51:10.032Z,4.50
2023-01-20T03:52:06.001Z,3.93
2023-01-20T03:53:09.233Z,3.13
2023-01-20T03:54:06.232Z,2.43
2023-01-20T03:55:08.114Z,2.10
2023-01-20T03:56:05.989Z,2.00
2023-01-20T03:57:08.691Z,2.00
2023-01-20T03:58:05.497Z,0.77
2023-01-20T03:59:02.882Z,1.70
2023-01-20T04:00:05.416Z,1.87
2023-01-20T04:01:08.908Z,2.00
2023-01-20T04:02:05.102Z,2.30
2023-01-20T04:03:06.157Z,2.00
2023-01-20T04:04:04.467Z,2.40
2023-01-20T04:05:02.899Z,2.47
2023-01-20T04:06:06.199Z,3.13
2023-01-20T04:07:04.570Z,3.57
2023-01-20T04:08:06.186Z,2.50
2023-01-20T04:09:07.377Z,3.00
2023-01-20T04:10:05.893Z,3.00
2023-01-20T04:11:05.645Z,2.37
2023-01-20T04:12:01.966Z,3.43
2023-01-20T04:13:01.545Z,4.00
2023-01-20T04:14:01.690Z,3.00
2023-01-20T04:15:01.597Z,2.93
2023-01-20T04:16:08.263Z,4.00
2023-01-20T04:17:03.983Z,4.03
2023-01-20T04:18:11.637Z,3.00
2023-01-20T04:19:01.129Z,3.00
2023-01-20T04:20:06.952Z,4.20
2023-01-20T04:21:02.767Z,4.00
2023-01-20T04:22:06.368Z,3.83
2023-01-20T04:23:02.515Z,2.87
2023-01-20T04:24:06.639Z,3.07
2023-01-20T04:25:07.507Z,3.37
2023-01-20T04:26:01.747Z,3.00
2023-01-20T04:27:01.397Z,2.87
2023-01-20T04:28:01.426Z,3.13
2023-01-20T04:29:01.914Z,3.00
2023-01-20T04:30:01.071Z,2.93
2023-01-20T04:31:01.605Z,2.00
2023-01-20T04:32:02.819Z,2.77
2023-01-20T04:33:01.083Z,2.00
2023-01-20T04:34:01.800Z,2.00
2023-01-20T04:35:01.245Z,1.73
2023-01-20T04:36:01.070Z,2.00
2023-01-20T04:37:01.557Z,1.37
2023-01-20T04:38:01.088Z,1.27
2023-01-20T04:39:01.075Z,1.43
2023-01-20T04:40:01.477Z,2.20
2023-01-20T04:41:03.533Z,2.00
2023-01-20T04:42:01.544Z,1.00
2023-01-20T04:43:01.436Z,1.27
2023-01-20T04:44:01.078Z,1.00
2023-01-20T04:45:01.474Z,1.63
2023-01-20T04:46:01.176Z,1.47
2023-01-20T04:47:01.132Z,1.10
2023-01-20T04:48:05.599Z,0.93
2023-01-20T04:49:01.076Z,0.40
2023-01-20T04:50:01.086Z,0.37
2023-01-20T04:51:03.366Z,0.13
2023-01-20T04:52:01.398Z,1.00
2023-01-20T04:53:01.074Z,0.97
2023-01-20T04:54:01.510Z,0.00
2023-01-20T04:55:01.095Z,0.87
2023-01-20T04:56:01.125Z,0.43
2023-01-20T04:57:01.062Z,0.00
2023-01-20T04:58:01.087Z,0.00
2023-01-20T04:59:01.836Z,0.00
2023-01-20T05:00:01.322Z,0.57
2023-01-20T05:01:02.040Z,0.00
2023-01-20T05:02:01.562Z,0.00
2023-01-20T05:03:01.630Z,0.00
2023-01-20T05:04:01.397Z,0.00
2023-01-20T05:05:01.052Z,0.57
2023-01-20T05:06:01.681Z,0.00
2023-01-20T05:07:01.405Z,0.00
2023-01-20T05:08:01.570Z,0.00
2023-01-20T05:09:01.496Z,0.00
2023-01-20T05:10:01.702Z,0.00
2023-01-20T05:11:01.674Z,0.53
2023-01-20T05:12:01.481Z,0.13
2023-01-20T05:13:01.154Z,0.00
2023-01-20T05:14:01.404Z,0.17
2023-01-20T05:15:01.427Z,0.00
2023-01-20T05:16:02.967Z,0.13
2023-01-20T05:17:01.155Z,0.77
2023-01-20T05:18:01.609Z,0.00
2023-01-20T05:19:01.546Z,0.00
2023-01-20T05:20:01.491Z,0.00
2023-01-20T05:21:04.033Z,0.00
2023-01-20T05:22:01.395Z,0.00
2023-01-20T05:23:01.655Z,0.00
2023-01-20T05:24:01.451Z,0.00
2023-01-20T05:25:01.090Z,0.00
2023-01-20T05:26:01.621Z,0.77
2023-01-20T05:27:01.425Z,0.00
2023-01-20T05:28:01.250Z,0.20
2023-01-20T05:29:01.198Z,0.00
2023-01-20T05:30:01.110Z,0.00
2023-01-20T05:31:01.526Z,0.30
2023-01-20T05:32:01.231Z,0.57
2023-01-20T05:33:01.082Z,0.23
2023-01-20T05:34:01.092Z,0.10
2023-01-20T05:35:01.121Z,0.00
2023-01-20T05:36:04.942Z,0.57
2023-01-20T05:37:01.071Z,0.00
2023-01-20T05:38:01.403Z,0.00
2023-01-20T05:39:01.098Z,0.00
2023-01-20T05:40:01.198Z,0.00
2023-01-20T05:41:02.909Z,0.00
2023-01-20T05:42:01.655Z,0.00
2023-01-20T05:43:02.285Z,0.00
2023-01-20T05:44:01.423Z,0.00
2023-01-20T05:45:01.455Z,0.00
2023-01-20T05:46:02.174Z,0.00
2023-01-20T05:47:01.433Z,0.00
2023-01-20T05:48:01.410Z,0.00
2023-01-20T05:49:01.054Z,0.00
2023-01-20T05:50:01.415Z,0.00
2023-01-20T05:51:01.081Z,0.00
2023-01-20T05:52:01.176Z,0.00
2023-01-20T05:53:01.081Z,0.00
2023-01-20T05:54:01.260Z,0.00
2023-01-20T05:55:01.079Z,0.00
2023-01-20T05:56:03.870Z,0.00
2023-01-20T05:57:01.084Z,0.00
2023-01-20T05:58:02.092Z,0.00
2023-01-20T05:59:01.094Z,0.00
2023-01-20T06:00:01.097Z,0.00
2023-01-20T06:01:05.737Z,0.00
2023-01-20T06:02:01.149Z,0.00
2023-01-20T06:03:01.944Z,0.00
2023-01-20T06:04:01.531Z,0.00
2023-01-20T06:05:01.568Z,0.00
2023-01-20T06:06:01.934Z,0.00
2023-01-20T06:07:01.068Z,0.00
2023-01-20T06:08:01.505Z,0.00
2023-01-20T06:09:01.548Z,0.00
2023-01-20T06:10:01.552Z,0.00
2023-01-20T06:11:01.550Z,0.00
2023-01-20T06:12:01.504Z,0.00
2023-01-20T06:13:01.441Z,0.00
2023-01-20T06:14:01.103Z,0.00
2023-01-20T06:15:01.182Z,0.00
2023-01-20T06:16:01.849Z,0.00
2023-01-20T06:17:01.083Z,0.00
2023-01-20T06:18:01.089Z,0.00
2023-01-20T06:19:01.408Z,0.00
2023-01-20T06:20:01.900Z,0.00
2023-01-20T06:21:01.180Z,0.00
2023-01-20T06:22:01.529Z,0.00
2023-01-20T06:23:01.398Z,0.00
2023-01-20T06:24:01.079Z,0.00
2023-01-20T06:25:01.443Z,0.00
2023-01-20T06:26:03.027Z,0.00
2023-01-20T06:27:01.333Z,0.00
2023-01-20T06:28:01.318Z,0.00
2023-01-20T06:29:01.084Z,0.00
2023-01-20T06:30:01.225Z,0.00
2023-01-20T06:31:03.079Z,0.00
2023-01-20T06:32:01.159Z,0.00
2023-01-20T06:33:01.423Z,0.00
2023-01-20T06:34:01.054Z,0.00
2023-01-20T06:35:01.405Z,0.00
2023-01-20T06:36:01.985Z,0.00
2023-01-20T06:37:01.484Z,0.00
2023-01-20T06:38:01.471Z,0.00
2023-01-20T06:39:01.116Z,0.00
2023-01-20T06:40:01.488Z,0.00
2023-01-20T06:41:03.255Z,0.00
2023-01-20T06:42:01.078Z,0.00
2023-01-20T06:43:01.443Z,0.00
2023-01-20T06:44:01.087Z,0.00
2023-01-20T06:45:01.449Z,0.00
2023-01-20T06:46:02.329Z,0.00
2023-01-20T06:47:01.548Z,0.00
2023-01-20T06:48:01.111Z,0.00
2023-01-20T06:49:01.706Z,0.00
2023-01-20T06:50:01.378Z,0.00
2023-01-20T06:51:01.937Z,0.00
2023-01-20T06:52:01.053Z,0.00
2023-01-20T06:53:01.078Z,0.00
2023-01-20T06:54:01.426Z,0.00
2023-01-20T06:55:01.052Z,0.00
2023-01-20T06:56:02.188Z,0.00
2023-01-20T06:57:01.421Z,0.00
2023-01-20T06:58:01.073Z,0.00
2023-01-20T06:59:01.755Z,0.00
2023-01-20T07:00:01.950Z,0.00
2023-01-20T07:01:05.888Z,0.00
2023-01-20T07:02:01.208Z,0.00
2023-01-20T07:03:01.422Z,0.00
2023-01-20T07:04:01.648Z,0.00
2023-01-20T07:05:01.221Z,0.00
2023-01-20T07:06:03.296Z,0.00
2023-01-20T07:07:01.079Z,0.00
2023-01-20T07:08:01.059Z,0.00
2023-01-20T07:09:02.399Z,0.00
2023-01-20T07:10:01.267Z,0.00
2023-01-20T07:11:01.190Z,0.00
2023-01-20T07:12:01.106Z,0.00
2023-01-20T07:13:01.592Z,0.00
2023-01-20T07:14:02.349Z,0.00
2023-01-20T07:15:01.450Z,0.00
2023-01-20T07:16:01.127Z,0.00
2023-01-20T07:17:01.106Z,0.00
2023-01-20T07:18:01.075Z,0.00
2023-01-20T07:19:01.564Z,0.00
2023-01-20T07:20:01.430Z,0.00
2023-01-20T07:21:01.515Z,0.00
2023-01-20T07:22:01.298Z,0.00
2023-01-20T07:23:01.875Z,0.00
2023-01-20T07:24:02.039Z,0.00
2023-01-20T07:25:01.455Z,0.00
2023-01-20T07:26:03.422Z,0.00
2023-01-20T07:27:01.246Z,0.00
2023-01-20T07:28:01.409Z,0.00
2023-01-20T07:29:01.548Z,0.00
2023-01-20T07:30:01.062Z,0.00
2023-01-20T07:31:03.177Z,0.00
2023-01-20T07:32:01.489Z,0.00
2023-01-20T07:33:01.374Z,0.00
2023-01-20T07:34:01.645Z,0.00
2023-01-20T07:35:01.391Z,0.00
2023-01-20T07:36:01.788Z,0.00
2023-01-20T07:37:02.452Z,0.00
2023-01-20T07:38:01.060Z,0.00
2023-01-20T07:39:01.448Z,0.00
2023-01-20T07:40:01.550Z,0.00
2023-01-20T07:41:05.212Z,0.00
2023-01-20T07:42:01.615Z,0.00
2023-01-20T07:43:02.698Z,0.00
2023-01-20T07:44:02.083Z,0.00
2023-01-20T07:45:01.061Z,0.00
2023-01-20T07:46:03.225Z,0.00
2023-01-20T07:47:01.094Z,0.00
2023-01-20T07:48:01.094Z,0.00
2023-01-20T07:49:01.067Z,0.00
2023-01-20T07:50:01.436Z,0.00
2023-01-20T07:51:04.194Z,0.00
2023-01-20T07:52:01.069Z,0.00
2023-01-20T07:53:01.716Z,0.00
2023-01-20T07:54:01.107Z,0.00
2023-01-20T07:55:01.792Z,0.00
2023-01-20T07:56:02.608Z,0.00
2023-01-20T07:57:01.112Z,0.00
2023-01-20T07:58:02.050Z,0.00
2023-01-20T07:59:01.096Z,0.00
2023-01-20T08:00:01.723Z,0.00
2023-01-20T08:01:07.316Z,0.00
2023-01-20T08:02:01.482Z,0.00
2023-01-20T08:03:01.072Z,0.00
2023-01-20T08:04:01.111Z,0.00
2023-01-20T08:05:01.450Z,0.00
2023-01-20T08:06:01.728Z,0.00
2023-01-20T08:07:01.233Z,0.00
2023-01-20T08:08:01.107Z,0.00
2023-01-20T08:09:02.272Z,0.00
2023-01-20T08:10:01.507Z,0.00
2023-01-20T08:11:02.337Z,0.00
2023-01-20T08:12:01.616Z,0.00
2023-01-20T08:13:01.432Z,0.00
2023-01-20T08:14:01.056Z,0.00
2023-01-20T08:15:01.432Z,0.00
2023-01-20T08:16:02.917Z,0.00
2023-01-20T08:17:01.575Z,0.00
2023-01-20T08:18:01.441Z,0.00
2023-01-20T08:19:01.431Z,0.00
2023-01-20T08:20:01.056Z,0.00
2023-01-20T08:21:02.462Z,0.00
2023-01-20T08:22:01.547Z,0.00
2023-01-20T08:23:01.415Z,0.00
2023-01-20T08:24:03.000Z,0.00
2023-01-20T08:25:01.058Z,0.00
2023-01-20T08:26:03.733Z,0.00
2023-01-20T08:27:01.351Z,0.00
2023-01-20T08:28:01.385Z,0.00
2023-01-20T08:29:02.303Z,0.00
2023-01-20T08:30:01.539Z,0.00
2023-01-20T08:31:04.491Z,0.00
2023-01-20T08:32:01.207Z,0.00
2023-01-20T08:33:01.442Z,0.00
2023-01-20T08:34:01.485Z,0.00
2023-01-20T08:35:01.108Z,0.00
2023-01-20T08:36:06.960Z,0.00
2023-01-20T08:37:01.077Z,0.00
2023-01-20T08:38:01.471Z,0.00
2023-01-20T08:39:04.473Z,0.00
2023-01-20T08:40:01.533Z,0.00
2023-01-20T08:41:01.603Z,0.00
2023-01-20T08:42:01.448Z,0.00
2023-01-20T08:43:01.794Z,0.00
2023-01-20T08:44:03.832Z,0.00
2023-01-20T08:45:02.131Z,0.00
2023-01-20T08:46:03.286Z,0.00
2023-01-20T08:47:01.111Z,0.00
2023-01-20T08:48:01.101Z,0.00
2023-01-20T08:49:01.412Z,0.00
2023-01-20T08:50:01.362Z,0.00
2023-01-20T08:51:03.680Z,0.00
2023-01-20T08:52:01.508Z,0.00
2023-01-20T08:53:01.463Z,0.00
2023-01-20T08:54:02.182Z,0.00
2023-01-20T08:55:01.628Z,0.00
2023-01-20T08:56:03.222Z,0.00
2023-01-20T08:57:01.476Z,0.00
2023-01-20T08:58:01.076Z,0.00
2023-01-20T08:59:02.012Z,0.00
2023-01-20T09:00:01.923Z,0.00
2023-01-20T09:01:06.696Z,0.00
2023-01-20T09:02:01.437Z,0.00
2023-01-20T09:03:01.168Z,0.00
2023-01-20T09:04:06.519Z,0.00
2023-01-20T09:05:02.301Z,0.00
2023-01-20T09:06:02.455Z,0.00
2023-01-20T09:07:01.142Z,0.00
2023-01-20T09:08:01.111Z,0.00
2023-01-20T09:09:02.771Z,0.00
2023-01-20T09:10:01.271Z,0.00
2023-01-20T09:11:02.030Z,0.00
2023-01-20T09:12:01.546Z,0.00
2023-01-20T09:13:01.459Z,0.00
2023-01-20T09:14:01.449Z,0.00
2023-01-20T09:15:03.359Z,0.00
2023-01-20T09:16:01.221Z,0.00
2023-01-20T09:17:01.768Z,0.00
2023-01-20T09:18:01.221Z,0.00
2023-01-20T09:19:01.164Z,0.00
2023-01-20T09:20:01.176Z,0.00
2023-01-20T09:21:01.705Z,0.00
2023-01-20T09:22:02.794Z,0.00
2023-01-20T09:23:01.985Z,1.87
2023-01-20T09:24:01.088Z,0.83
2023-01-20T09:25:01.077Z,0.00
2023-01-20T09:26:02.596Z,0.00
2023-01-20T09:27:01.048Z,0.00
2023-01-20T09:28:01.522Z,0.00
2023-01-20T09:29:01.919Z,0.00
2023-01-20T09:30:01.126Z,0.00
2023-01-20T09:31:03.538Z,0.00
2023-01-20T09:32:01.234Z,0.00
2023-01-20T09:33:01.539Z,0.00
2023-01-20T09:34:01.978Z,0.00
2023-01-20T09:35:01.566Z,0.00
2023-01-20T09:36:04.157Z,0.00
2023-01-20T09:37:02.605Z,0.00
2023-01-20T09:38:01.155Z,0.00
2023-01-20T09:39:01.197Z,0.00
2023-01-20T09:40:02.159Z,0.00
2023-01-20T09:41:12.125Z,0.00
2023-01-20T09:42:16.019Z,0.00
2023-01-20T09:43:15.652Z,0.00
2023-01-20T09:44:11.723Z,0.00
2023-01-20T09:45:10.640Z,0.00
2023-01-20T09:46:08.225Z,0.00
2023-01-20T09:47:12.841Z,0.00
2023-01-20T09:48:12.573Z,0.00
2023-01-20T09:49:09.543Z,0.00
2023-01-20T09:50:17.752Z,0.00
2023-01-20T09:51:10.378Z,0.00
2023-01-20T09:52:09.594Z,0.00
2023-01-20T09:53:05.964Z,0.00
2023-01-20T09:54:06.080Z,0.00
2023-01-20T09:55:09.456Z,0.00
2023-01-20T09:56:08.614Z,0.00
2023-01-20T09:57:05.832Z,0.30
2023-01-20T09:58:09.605Z,0.00
2023-01-20T09:59:08.658Z,0.00
2023-01-20T10:00:06.827Z,0.00
2023-01-20T10:01:09.966Z,0.00
2023-01-20T10:02:06.136Z,0.00
2023-01-20T10:03:09.229Z,0.00
2023-01-20T10:04:09.432Z,0.00
2023-01-20T10:05:10.320Z,0.00
2023-01-20T10:06:04.021Z,0.00
2023-01-20T10:07:09.483Z,0.00
2023-01-20T10:08:07.977Z,0.00
2023-01-20T10:09:06.522Z,0.00
2023-01-20T10:10:13.986Z,0.00
2023-01-20T10:11:08.329Z,0.00
2023-01-20T10:12:10.498Z,0.00
2023-01-20T10:13:07.672Z,0.00
2023-01-20T10:14:07.182Z,0.00
2023-01-20T10:15:07.974Z,0.00
2023-01-20T10:16:07.804Z,0.00
2023-01-20T10:17:07.229Z,0.00
2023-01-20T10:18:08.062Z,0.00
2023-01-20T10:19:09.361Z,0.00
2023-01-20T10:20:07.291Z,0.00
2023-01-20T10:21:09.709Z,0.00
2023-01-20T10:22:10.585Z,0.00
2023-01-20T10:23:07.737Z,0.00
2023-01-20T10:24:09.823Z,0.00
2023-01-20T10:25:08.112Z,0.00
2023-01-20T10:26:08.715Z,0.00
2023-01-20T10:27:03.023Z,0.00
2023-01-20T10:28:09.961Z,0.00
2023-01-20T10:29:04.418Z,0.00
2023-01-20T10:30:09.598Z,0.00
2023-01-20T10:31:04.588Z,0.00
2023-01-20T10:32:04.561Z,0.00
2023-01-20T10:33:08.148Z,0.00
2023-01-20T10:34:09.350Z,0.00
2023-01-20T10:35:09.498Z,0.00
2023-01-20T10:36:01.148Z,0.00
2023-01-20T10:37:06.323Z,0.00
2023-01-20T10:38:05.837Z,0.00
2023-01-20T10:39:09.907Z,0.00
2023-01-20T10:40:13.254Z,0.00
2023-01-20T10:41:11.125Z,0.00
2023-01-20T10:42:03.734Z,0.00
2023-01-20T10:43:09.357Z,0.00
2023-01-20T10:44:04.945Z,0.00
2023-01-20T10:45:01.619Z,0.00
2023-01-20T10:46:15.653Z,0.00
2023-01-20T10:47:14.005Z,0.00
2023-01-20T10:48:13.400Z,0.00
2023-01-20T10:49:20.461Z,0.00
2023-01-20T10:50:20.467Z,0.00
2023-01-20T10:51:09.240Z,0.00
2023-01-20T10:52:15.409Z,0.00
2023-01-20T10:53:18.672Z,0.13
2023-01-20T10:54:11.495Z,0.00
2023-01-20T10:55:13.956Z,0.00
2023-01-20T10:56:12.477Z,0.00
2023-01-20T10:57:04.945Z,0.00
2023-01-20T10:58:13.883Z,0.00
2023-01-20T10:59:07.184Z,0.00
2023-01-20T11:00:06.238Z,0.00
2023-01-20T11:01:05.553Z,0.00
2023-01-20T11:02:13.701Z,0.00
2023-01-20T11:03:03.156Z,0.00
2023-01-20T11:04:01.614Z,0.00
2023-01-20T11:05:09.505Z,0.00
2023-01-20T11:06:02.519Z,0.00
2023-01-20T11:07:01.191Z,0.00
2023-01-20T11:08:02.450Z,0.00
2023-01-20T11:09:17.500Z,0.00
2023-01-20T11:10:14.558Z,0.00
2023-01-20T11:11:11.035Z,0.00
2023-01-20T11:12:02.363Z,0.00
2023-01-20T11:13:02.315Z,0.00
2023-01-20T11:14:01.264Z,0.00
2023-01-20T11:15:06.033Z,0.00
2023-01-20T11:16:06.061Z,0.00
2023-01-20T11:17:05.834Z,0.00
2023-01-20T11:18:20.464Z,0.00
2023-01-20T11:19:03.257Z,0.00
2023-01-20T11:20:05.838Z,0.00
2023-01-20T11:21:03.792Z,0.00
2023-01-20T11:22:10.176Z,0.00
2023-01-20T11:23:01.553Z,0.00
2023-01-20T11:24:12.771Z,0.73
2023-01-20T11:25:03.277Z,0.00
2023-01-20T11:26:04.350Z,0.00
2023-01-20T11:27:05.460Z,0.00
2023-01-20T11:28:01.566Z,0.00
2023-01-20T11:29:12.368Z,0.00
2023-01-20T11:30:05.774Z,0.00
2023-01-20T11:31:02.464Z,0.00
2023-01-20T11:32:01.705Z,0.00
2023-01-20T11:33:16.253Z,0.00
2023-01-20T11:34:12.386Z,0.00
2023-01-20T11:35:12.736Z,0.00
2023-01-20T11:36:03.322Z,0.00
2023-01-20T11:37:16.499Z,0.00
2023-01-20T11:38:20.485Z,0.00
2023-01-20T11:39:01.130Z,0.00
2023-01-20T11:40:12.679Z,0.00
2023-01-20T11:41:01.752Z,0.00
2023-01-20T11:42:13.963Z,0.00
2023-01-20T11:43:01.489Z,0.00
2023-01-20T11:44:01.121Z,0.00
2023-01-20T11:45:20.236Z,0.00
2023-01-20T11:46:11.945Z,0.00
2023-01-20T11:47:15.935Z,0.00
2023-01-20T11:48:05.684Z,0.00
2023-01-20T11:49:13.097Z,0.00
2023-01-20T11:50:20.472Z,0.00
2023-01-20T11:51:01.617Z,0.00
2023-01-20T11:52:01.142Z,0.00
2023-01-20T11:53:12.480Z,0.00
2023-01-20T11:54:07.630Z,0.00
2023-01-20T11:55:08.228Z,0.00
2023-01-20T11:56:04.959Z,0.00
2023-01-20T11:57:04.608Z,0.00
2023-01-20T11:58:03.286Z,0.00
2023-01-20T11:59:03.485Z,0.00
2023-01-20T12:00:01.258Z,0.00
2023-01-20T12:01:05.118Z,0.00
2023-01-20T12:02:20.836Z,0.00
2023-01-20T12:03:12.740Z,0.00
2023-01-20T12:04:20.555Z,0.00
2023-01-20T12:05:12.952Z,0.00
2023-01-20T12:06:07.976Z,0.00
2023-01-20T12:07:05.208Z,0.00
2023-01-20T12:08:03.142Z,0.00
2023-01-20T12:09:05.266Z,0.00
2023-01-20T12:10:11.027Z,0.00
2023-01-20T12:11:06.123Z,0.00
2023-01-20T12:12:04.535Z,0.00
2023-01-20T12:13:13.823Z,0.00
2023-01-20T12:14:12.740Z,0.00
2023-01-20T12:15:04.911Z,0.00
2023-01-20T12:16:04.031Z,0.00
2023-01-20T12:17:16.155Z,0.00
2023-01-20T12:18:09.527Z,0.00
2023-01-20T12:19:05.958Z,0.77
2023-01-20T12:20:08.949Z,0.00
2023-01-20T12:21:08.214Z,0.00
2023-01-20T12:22:11.236Z,0.00
2023-01-20T12:23:13.630Z,0.00
2023-01-20T12:24:11.967Z,0.00
2023-01-20T12:25:11.403Z,0.00
2023-01-20T12:26:03.903Z,0.00
2023-01-20T12:27:01.750Z,0.00
2023-01-20T12:28:09.803Z,0.00
2023-01-20T12:29:11.998Z,0.47
2023-01-20T12:30:06.581Z,0.17
2023-01-20T12:31:03.050Z,0.10
2023-01-20T12:32:02.003Z,0.80
2023-01-20T12:33:01.655Z,0.47
2023-01-20T12:34:04.944Z,0.00
2023-01-20T12:35:02.404Z,0.30
2023-01-20T12:36:20.464Z,0.00
2023-01-20T12:37:11.696Z,0.00
2023-01-20T12:38:07.866Z,0.00
2023-01-20T12:39:20.478Z,0.00
2023-01-20T12:40:18.340Z,0.00
2023-01-20T12:41:15.007Z,0.00
2023-01-20T12:42:20.467Z,0.43
2023-01-20T12:43:20.466Z,0.00
2023-01-20T12:44:12.757Z,0.67
2023-01-20T12:45:14.663Z,0.40
2023-01-20T12:46:20.139Z,0.17
2023-01-20T12:47:14.274Z,0.00
2023-01-20T12:48:13.019Z,0.73
2023-01-20T12:49:20.061Z,0.70
2023-01-20T12:50:18.213Z,1.30
2023-01-20T12:51:15.517Z,0.53
2023-01-20T12:52:16.097Z,0.00
2023-01-20T12:53:17.652Z,0.00
2023-01-20T12:54:20.470Z,1.00
2023-01-20T12:55:12.554Z,0.37
2023-01-20T12:56:11.560Z,0.00
2023-01-20T12:57:10.941Z,0.00
2023-01-20T12:58:15.111Z,0.40
2023-01-20T12:59:11.224Z,0.83
2023-01-20T13:00:20.463Z,0.50
2023-01-20T13:01:20.516Z,0.00
2023-01-20T13:02:18.494Z,0.40
2023-01-20T13:03:20.489Z,1.00
2023-01-20T13:04:20.460Z,0.60
2023-01-20T13:05:18.612Z,0.00
2023-01-20T13:06:17.144Z,0.93
2023-01-20T13:07:15.274Z,0.53
2023-01-20T13:08:09.755Z,0.17
2023-01-20T13:09:13.482Z,0.53
2023-01-20T13:10:14.379Z,0.87
2023-01-20T13:11:11.849Z,0.00
2023-01-20T13:12:13.672Z,0.87
2023-01-20T13:13:12.984Z,0.73
2023-01-20T13:14:11.150Z,0.07
2023-01-20T13:15:13.848Z,1.00
2023-01-20T13:16:12.357Z,0.07
2023-01-20T13:17:10.933Z,0.03
2023-01-20T13:18:13.630Z,0.80
2023-01-20T13:19:11.222Z,0.80
2023-01-20T13:20:03.525Z,0.70
2023-01-20T13:21:01.183Z,0.20
2023-01-20T13:22:09.267Z,0.53
2023-01-20T13:23:05.029Z,0.10
2023-01-20T13:24:04.472Z,1.00
2023-01-20T13:25:01.786Z,0.73
2023-01-20T13:26:04.804Z,0.00
2023-01-20T13:27:02.376Z,0.57
2023-01-20T13:28:02.100Z,0.20
2023-01-20T13:29:01.410Z,1.20
2023-01-20T13:30:03.406Z,0.40
2023-01-20T13:31:20.677Z,0.00
2023-01-20T13:32:01.993Z,1.00
2023-01-20T13:33:03.303Z,0.70
2023-01-20T13:34:20.461Z,0.60
2023-01-20T13:35:11.660Z,0.73
2023-01-20T13:36:15.718Z,1.00
2023-01-20T13:37:20.499Z,0.60
2023-01-20T13:38:02.332Z,0.37
2023-01-20T13:39:20.459Z,0.17
2023-01-20T13:40:01.906Z,0.83
2023-01-20T13:41:02.560Z,0.63
2023-01-20T13:42:01.431Z,1.00
2023-01-20T13:43:01.340Z,0.90
2023-01-20T13:44:20.459Z,0.60
2023-01-20T13:45:15.968Z,1.00
2023-01-20T13:46:20.598Z,0.10
2023-01-20T13:47:02.893Z,0.10
2023-01-20T13:48:20.476Z,0.27
2023-01-20T13:49:12.731Z,0.23
2023-01-20T13:50:20.486Z,0.00
2023-01-20T13:51:20.477Z,0.57
2023-01-20T13:52:01.461Z,1.70
2023-01-20T13:53:12.604Z,1.00
2023-01-20T13:54:20.461Z,1.80
2023-01-20T13:55:01.069Z,1.00
2023-01-20T13:56:02.073Z,1.00
2023-01-20T13:57:20.511Z,1.00
2023-01-20T13:58:01.323Z,0.37
2023-01-20T13:59:01.090Z,1.00
2023-01-20T14:00:01.730Z,1.00
2023-01-20T14:01:04.152Z,0.97
2023-01-20T14:02:15.136Z,0.00
2023-01-20T14:03:16.887Z,0.57
2023-01-20T14:04:03.386Z,1.10
2023-01-20T14:05:01.049Z,1.30
2023-01-20T14:06:03.761Z,0.87
2023-01-20T14:07:01.523Z,0.53
2023-01-20T14:08:01.544Z,0.33
2023-01-20T14:09:02.172Z,1.00
2023-01-20T14:10:01.466Z,0.63
2023-01-20T14:11:12.108Z,0.87
2023-01-20T14:12:01.401Z,0.33
2023-01-20T14:13:08.618Z,0.87
2023-01-20T14:14:02.869Z,0.53
2023-01-20T14:15:01.493Z,0.03
2023-01-20T14:16:02.045Z,0.70
2023-01-20T14:17:02.393Z,0.23
2023-01-20T14:18:01.665Z,0.90
2023-01-20T14:19:14.403Z,1.00
2023-01-20T14:20:01.212Z,1.00
2023-01-20T14:21:12.997Z,0.77
2023-01-20T14:22:03.845Z,1.10
2023-01-20T14:23:20.469Z,1.00
2023-01-20T14:24:01.124Z,1.00
2023-01-20T14:25:01.091Z,0.50
2023-01-20T14:26:03.319Z,1.00
2023-01-20T14:27:07.100Z,0.77
2023-01-20T14:28:01.563Z,0.23
2023-01-20T14:29:01.850Z,1.00
2023-01-20T14:30:14.678Z,2.03
2023-01-20T14:31:14.610Z,1.00
2023-01-20T14:32:01.495Z,0.87
2023-01-20T14:33:08.033Z,0.97
2023-01-20T14:34:11.970Z,0.50
2023-01-20T14:35:11.127Z,1.00
2023-01-20T14:36:05.859Z,0.87
2023-01-20T14:37:12.761Z,1.00
2023-01-20T14:38:01.993Z,1.03
2023-01-20T14:39:04.069Z,1.00
2023-01-20T14:40:15.454Z,0.90
2023-01-20T14:41:01.819Z,0.43
2023-01-20T14:42:01.468Z,1.20
2023-01-20T14:43:03.624Z,1.00
2023-01-20T14:44:02.097Z,1.07
2023-01-20T14:45:01.160Z,1.00
2023-01-20T14:46:01.130Z,0.97
2023-01-20T14:47:03.277Z,3.77
2023-01-20T14:48:03.807Z,5.97
2023-01-20T14:49:03.229Z,6.43
2023-01-20T14:50:01.881Z,4.10
2023-01-20T14:51:01.930Z,1.83
2023-01-20T14:52:03.565Z,1.07
2023-01-20T14:53:01.115Z,1.73
2023-01-20T14:54:20.468Z,1.77
2023-01-20T14:55:01.062Z,1.00
2023-01-20T14:56:03.448Z,1.57
2023-01-20T14:57:14.258Z,1.30
2023-01-20T14:58:07.440Z,1.87
2023-01-20T14:59:01.136Z,2.00
2023-01-20T15:00:12.383Z,1.70
2023-01-20T15:01:04.369Z,1.40
2023-01-20T15:02:14.142Z,1.43
2023-01-20T15:03:11.453Z,2.07
2023-01-20T15:04:03.331Z,2.43
2023-01-20T15:05:02.271Z,1.40
2023-01-20T15:06:17.283Z,2.23
2023-01-20T15:07:01.596Z,2.23
2023-01-20T15:08:13.045Z,2.30
2023-01-20T15:09:07.188Z,1.73
2023-01-20T15:10:08.863Z,1.93
2023-01-20T15:11:18.111Z,1.90
2023-01-20T15:12:20.477Z,2.77
2023-01-20T15:13:01.354Z,3.17
2023-01-20T15:14:08.367Z,3.33
2023-01-20T15:15:13.921Z,2.80
2023-01-20T15:16:15.794Z,2.27
2023-01-20T15:17:07.770Z,1.50
2023-01-20T15:18:04.301Z,2.00
2023-01-20T15:19:20.504Z,1.00